Providence, Rhode Island
Traffic Map
Current Weather Conditions
Providence, Rhode Island
Overcast Light Rain
Overcast
53°
Feels Like: 53°
Wind Chill: 53° Ceiling: 1100
Heat Index: 53° Visibility: 10mi
Dew Point: 49° Wind: 28mph
Humidity: 86% Direction: 10° (N)
Pressure: 29.57in Gusts: 39mph
Raw Report DataKPVD 231051Z 01024G34KT 10SM -RA OVC011 12/09 A2957 RMK AO2 PK WND 01035/1041 RAE11B42 PRESFR SLP015 P0000 T01170094
Traffic Incident Summary
Active as of:
Severity:
Category:
InformationThere was an issue retrieving the traffic information for this location. Please try a different location or try again shortly.
Advertisements
Track Severe Weather on mobile